Time;durP1;ratioP1;P1;durP2;ratioP2;P2;SDS_P1;SDS_P2;PMS_P1;PMS_P2;Temp;Humidity;BMP_temperature;BMP_pressure;BME280_temperature;BME280_humidity;BME280_pressure;Samples;Min_cycle;Max_cycle;Signal;HPM_P1;HPM_P2
2022/11/19 00:00:45;;;;;;;18.17;9.50;;;;;;;;;;5059033;28;20072;-80
2022/11/19 00:03:16;;;;;;;19.45;9.07;;;;;;;;;;5059243;28;20055;-80
2022/11/19 00:05:43;;;;;;;18.23;8.95;;;;;;;;;;5064257;28;20052;-80
2022/11/19 00:08:11;;;;;;;29.20;12.63;;;;;;;;;;5063682;28;20044;-80
2022/11/19 00:10:38;;;;;;;18.52;9.32;;;;;;;;;;5064715;28;20049;-79
2022/11/19 00:13:05;;;;;;;19.55;9.30;;;;;;;;;;5070821;28;20109;-78
2022/11/19 00:15:35;;;;;;;20.77;9.73;;;;;;;;;;5052111;28;20046;-81
2022/11/19 00:18:03;;;;;;;16.73;8.68;;;;;;;;;;5056325;28;20131;-78
2022/11/19 00:20:29;;;;;;;15.77;8.95;;;;;;;;;;5068319;28;20041;-82
2022/11/19 00:22:56;;;;;;;19.10;9.27;;;;;;;;;;5069589;28;20101;-79
2022/11/19 00:25:23;;;;;;;19.25;9.48;;;;;;;;;;5069289;28;20055;-79
2022/11/19 00:27:49;;;;;;;20.17;9.52;;;;;;;;;;5054928;28;20067;-79
2022/11/19 00:30:16;;;;;;;18.92;9.60;;;;;;;;;;5055690;28;20045;-81
2022/11/19 00:33:03;;;;;;;16.63;9.13;;;;;;;;;;5055294;28;20419;-79
2022/11/19 00:35:29;;;;;;;20.17;9.75;;;;;;;;;;5055710;28;20041;-79
2022/11/19 00:37:55;;;;;;;19.17;9.43;;;;;;;;;;5056632;28;20144;-79
2022/11/19 00:40:22;;;;;;;20.75;9.73;;;;;;;;;;5056504;28;20055;-78
2022/11/19 00:43:45;;;;;;;21.83;10.02;;;;;;;;;;5056843;28;20060;-81
2022/11/19 00:45:35;;;;;;;22.02;9.30;;;;;;;;;;5055891;28;20519;-80
2022/11/19 00:48:01;;;;;;;23.45;9.68;;;;;;;;;;5056902;28;20044;-80
2022/11/19 00:50:28;;;;;;;21.67;9.57;;;;;;;;;;5056817;28;20059;-79
2022/11/19 00:52:54;;;;;;;23.92;10.60;;;;;;;;;;5056999;28;20199;-81
2022/11/19 00:55:20;;;;;;;22.52;10.63;;;;;;;;;;5056719;28;20163;-79
2022/11/19 00:57:47;;;;;;;19.25;9.50;;;;;;;;;;5056887;28;20060;-80
2022/11/19 01:00:14;;;;;;;20.10;10.00;;;;;;;;;;5056971;28;20094;-79
2022/11/19 01:02:40;;;;;;;23.60;9.50;;;;;;;;;;5056345;28;20147;-80
2022/11/19 01:05:07;;;;;;;22.08;9.75;;;;;;;;;;5071129;28;20040;-78
2022/11/19 01:07:33;;;;;;;23.23;10.35;;;;;;;;;;5073553;28;20053;-79
2022/11/19 01:09:59;;;;;;;23.15;9.60;;;;;;;;;;5060089;28;20053;-80
2022/11/19 01:12:26;;;;;;;21.35;10.02;;;;;;;;;;5053908;28;20079;-78
2022/11/19 01:14:52;;;;;;;20.17;9.80;;;;;;;;;;5068486;28;20107;-78
2022/11/19 01:17:19;;;;;;;19.83;9.18;;;;;;;;;;5067999;28;20113;-77
2022/11/19 01:19:45;;;;;;;22.08;9.60;;;;;;;;;;5057014;28;20048;-80
2022/11/19 01:22:12;;;;;;;17.95;9.05;;;;;;;;;;5055230;28;20045;-80
2022/11/19 01:24:38;;;;;;;21.83;9.23;;;;;;;;;;5055802;28;20238;-80
2022/11/19 01:27:05;;;;;;;20.23;10.48;;;;;;;;;;5055744;28;20547;-80
2022/11/19 01:29:31;;;;;;;23.08;9.95;;;;;;;;;;5059828;28;20424;-78
2022/11/19 01:31:57;;;;;;;18.98;9.20;;;;;;;;;;5068176;28;20045;-79
2022/11/19 01:34:24;;;;;;;21.77;9.57;;;;;;;;;;5062639;28;20073;-80
2022/11/19 01:36:50;;;;;;;21.13;9.90;;;;;;;;;;5054507;28;20055;-80
2022/11/19 01:39:18;;;;;;;21.60;9.68;;;;;;;;;;5055104;28;20041;-79
2022/11/19 01:41:45;;;;;;;21.27;9.90;;;;;;;;;;5054059;28;20076;-80
2022/11/19 01:44:30;;;;;;;22.48;10.40;;;;;;;;;;5054431;28;20055;-79
2022/11/19 01:46:56;;;;;;;21.25;10.52;;;;;;;;;;5053979;28;20045;-78
2022/11/19 01:49:22;;;;;;;25.65;10.43;;;;;;;;;;5054259;28;20049;-80
2022/11/19 01:51:55;;;;;;;20.67;9.75;;;;;;;;;;5054113;28;20045;-80
2022/11/19 01:54:29;;;;;;;25.13;10.05;;;;;;;;;;5053841;28;20048;-81
2022/11/19 01:56:59;;;;;;;21.08;9.90;;;;;;;;;;5053715;28;20049;-80
2022/11/19 01:59:26;;;;;;;19.90;9.20;;;;;;;;;;5053404;28;20045;-79
2022/11/19 02:01:53;;;;;;;20.65;9.85;;;;;;;;;;5052889;28;20425;-78
2022/11/19 02:04:20;;;;;;;22.17;9.82;;;;;;;;;;5049977;28;20049;-78
2022/11/19 02:06:47;;;;;;;18.95;9.40;;;;;;;;;;5053383;28;20514;-78
2022/11/19 02:09:13;;;;;;;20.98;9.90;;;;;;;;;;5055860;28;20053;-80
2022/11/19 02:11:42;;;;;;;23.85;10.07;;;;;;;;;;5056837;28;20159;-77
2022/11/19 02:14:21;;;;;;;21.33;9.80;;;;;;;;;;5052778;28;20049;-79
2022/11/19 02:17:06;;;;;;;22.23;9.73;;;;;;;;;;5052448;28;20053;-79
2022/11/19 02:19:52;;;;;;;20.90;10.05;;;;;;;;;;5052672;28;20405;-78
2022/11/19 02:22:18;;;;;;;20.67;9.75;;;;;;;;;;5052273;28;20063;-78
2022/11/19 02:24:50;;;;;;;21.48;9.75;;;;;;;;;;5052820;28;20065;-78
2022/11/19 02:27:17;;;;;;;21.75;10.00;;;;;;;;;;5052592;28;20052;-78
2022/11/19 02:29:58;;;;;;;20.98;9.65;;;;;;;;;;5051427;28;20053;-80
2022/11/19 02:32:29;;;;;;;22.45;10.40;;;;;;;;;;5049548;28;20056;-78
2022/11/19 02:35:01;;;;;;;23.13;10.13;;;;;;;;;;5061338;28;20044;-80
2022/11/19 02:37:31;;;;;;;22.02;9.63;;;;;;;;;;5062834;28;20488;-77
2022/11/19 02:40:14;;;;;;;26.67;10.85;;;;;;;;;;5054086;28;20048;-81
2022/11/19 02:42:46;;;;;;;24.27;10.10;;;;;;;;;;5055219;28;20045;-81
2022/11/19 02:45:15;;;;;;;22.83;9.43;;;;;;;;;;5054584;28;20108;-79
2022/11/19 02:47:50;;;;;;;21.58;9.90;;;;;;;;;;5056245;28;20488;-80
2022/11/19 02:50:18;;;;;;;23.23;10.53;;;;;;;;;;5058024;28;20424;-80
2022/11/19 02:52:45;;;;;;;23.45;10.15;;;;;;;;;;5057219;28;20292;-80
2022/11/19 02:55:13;;;;;;;21.33;9.48;;;;;;;;;;5056346;28;20060;-79
2022/11/19 02:57:41;;;;;;;21.95;9.90;;;;;;;;;;5058532;28;20059;-80
2022/11/19 03:05:39;;;;;;;24.15;10.50;;;;;;;;;;5055041;28;20233;-80
2022/11/19 03:08:06;;;;;;;26.27;10.55;;;;;;;;;;5055692;28;20052;-80
2022/11/19 03:10:40;;;;;;;24.00;10.10;;;;;;;;;;5054482;28;20049;-79
2022/11/19 03:19:13;;;;;;;23.15;10.18;;;;;;;;;;5058866;28;20033;-80
2022/11/19 03:21:55;;;;;;;23.73;10.02;;;;;;;;;;5059071;28;20055;-77
2022/11/19 03:24:28;;;;;;;23.25;10.20;;;;;;;;;;5058213;28;20175;-76
2022/11/19 03:26:54;;;;;;;26.38;10.90;;;;;;;;;;5057413;28;20060;-81
2022/11/19 03:29:21;;;;;;;25.60;10.55;;;;;;;;;;5056311;28;20055;-79
2022/11/19 03:31:50;;;;;;;24.13;10.98;;;;;;;;;;5058135;28;20080;-80
2022/11/19 03:34:19;;;;;;;23.70;10.60;;;;;;;;;;5057318;28;20052;-79
2022/11/19 03:36:47;;;;;;;24.05;10.38;;;;;;;;;;5058054;28;20045;-79
2022/11/19 03:39:17;;;;;;;22.20;10.18;;;;;;;;;;5060270;28;20076;-80
2022/11/19 03:41:45;;;;;;;24.00;10.95;;;;;;;;;;5072659;28;20079;-80
2022/11/19 03:44:27;;;;;;;23.92;10.15;;;;;;;;;;5064942;28;20139;-79
2022/11/19 03:46:57;;;;;;;25.33;10.40;;;;;;;;;;5073807;28;20040;-79
2022/11/19 03:49:27;;;;;;;29.10;10.85;;;;;;;;;;5075930;28;20100;-78
2022/11/19 03:51:57;;;;;;;28.08;11.02;;;;;;;;;;5076554;28;20534;-79
2022/11/19 03:54:23;;;;;;;24.70;10.43;;;;;;;;;;5076462;28;20056;-80
2022/11/19 03:56:50;;;;;;;28.85;11.45;;;;;;;;;;5076372;28;20040;-80
2022/11/19 03:59:16;;;;;;;23.38;10.02;;;;;;;;;;5069992;28;20045;-79
2022/11/19 04:01:45;;;;;;;23.52;9.98;;;;;;;;;;5066198;28;20126;-78
2022/11/19 04:07:00;;;;;;;23.65;9.88;;;;;;;;;;5074668;28;20095;-79
2022/11/19 04:09:26;;;;;;;26.13;11.10;;;;;;;;;;5076833;28;20067;-79
2022/11/19 04:11:52;;;;;;;22.23;9.60;;;;;;;;;;5074890;28;20056;-79
2022/11/19 04:14:18;;;;;;;23.98;10.43;;;;;;;;;;5070431;28;20040;-78
2022/11/19 04:16:44;;;;;;;24.70;10.05;;;;;;;;;;5041866;28;20056;-78
2022/11/19 04:19:11;;;;;;;28.10;10.30;;;;;;;;;;5036334;28;20501;-80
2022/11/19 04:21:37;;;;;;;23.67;10.18;;;;;;;;;;5036309;28;20526;-80
2022/11/19 04:24:04;;;;;;;26.83;11.48;;;;;;;;;;5034684;28;20075;-81
2022/11/19 04:26:30;;;;;;;29.88;10.75;;;;;;;;;;5036461;28;20057;-80
2022/11/19 04:28:57;;;;;;;28.48;10.38;;;;;;;;;;5036061;28;20813;-82
2022/11/19 04:31:23;;;;;;;22.65;10.32;;;;;;;;;;5052348;28;20060;-81
2022/11/19 04:33:49;;;;;;;27.55;10.90;;;;;;;;;;5035099;28;20050;-77
2022/11/19 04:36:16;;;;;;;22.48;10.25;;;;;;;;;;5037190;28;20054;-80
2022/11/19 04:38:42;;;;;;;24.92;10.65;;;;;;;;;;5036284;28;20053;-80
2022/11/19 04:41:09;;;;;;;25.67;10.98;;;;;;;;;;5036327;28;20069;-79
2022/11/19 04:43:35;;;;;;;29.10;10.60;;;;;;;;;;5035260;28;20046;-80
2022/11/19 04:46:02;;;;;;;28.30;11.55;;;;;;;;;;5036468;28;20084;-78
2022/11/19 04:48:28;;;;;;;25.25;11.15;;;;;;;;;;5036709;28;20049;-81
2022/11/19 04:50:55;;;;;;;26.95;10.68;;;;;;;;;;5036581;28;20059;-81
2022/11/19 04:53:21;;;;;;;26.05;10.55;;;;;;;;;;5035134;28;20121;-78
2022/11/19 04:55:47;;;;;;;28.58;11.65;;;;;;;;;;5036558;28;20055;-80
2022/11/19 04:58:14;;;;;;;24.63;10.95;;;;;;;;;;5036647;28;20045;-80
2022/11/19 05:00:40;;;;;;;28.27;11.48;;;;;;;;;;5039796;28;20045;-80
2022/11/19 05:03:07;;;;;;;28.58;12.02;;;;;;;;;;5044319;28;20048;-80
2022/11/19 05:05:33;;;;;;;30.45;11.90;;;;;;;;;;5055906;28;20125;-78
2022/11/19 05:08:00;;;;;;;28.33;10.82;;;;;;;;;;5056848;28;20057;-78
2022/11/19 05:10:26;;;;;;;29.05;11.98;;;;;;;;;;5054478;28;20048;-77
2022/11/19 05:12:52;;;;;;;32.58;10.77;;;;;;;;;;5055396;28;20052;-79
2022/11/19 05:15:19;;;;;;;32.30;12.05;;;;;;;;;;5042463;28;20510;-81
2022/11/19 05:17:46;;;;;;;27.67;11.55;;;;;;;;;;5038546;28;20049;-80
2022/11/19 05:20:31;;;;;;;35.45;12.40;;;;;;;;;;5035157;28;20109;-80
2022/11/19 05:22:57;;;;;;;34.00;12.40;;;;;;;;;;5046865;28;20397;-78
2022/11/19 05:25:24;;;;;;;32.22;11.55;;;;;;;;;;5054547;28;20049;-76
2022/11/19 05:27:50;;;;;;;34.53;11.60;;;;;;;;;;5017161;28;21084;-75
2022/11/19 05:30:17;;;;;;;28.08;11.75;;;;;;;;;;5032608;28;20478;-78
2022/11/19 05:32:43;;;;;;;28.15;11.18;;;;;;;;;;5052113;28;20051;-77
2022/11/19 05:35:10;;;;;;;30.65;11.50;;;;;;;;;;5052375;28;20297;-78
2022/11/19 05:37:36;;;;;;;29.27;11.25;;;;;;;;;;5051848;28;20041;-76
2022/11/19 05:40:03;;;;;;;24.75;11.32;;;;;;;;;;5053580;28;20056;-78
2022/11/19 05:42:29;;;;;;;29.35;11.73;;;;;;;;;;5060902;28;20055;-80
2022/11/19 05:44:56;;;;;;;25.65;10.57;;;;;;;;;;5066677;28;20072;-78
2022/11/19 05:47:22;;;;;;;25.52;10.40;;;;;;;;;;5066442;28;20048;-79
2022/11/19 05:49:48;;;;;;;25.50;10.73;;;;;;;;;;5062231;28;20055;-78
2022/11/19 05:52:15;;;;;;;32.75;11.40;;;;;;;;;;5063118;28;20063;-78
2022/11/19 05:54:41;;;;;;;26.50;10.30;;;;;;;;;;5063587;28;20211;-78
2022/11/19 05:57:08;;;;;;;26.40;10.52;;;;;;;;;;5062130;28;20486;-79
2022/11/19 05:59:36;;;;;;;25.23;10.15;;;;;;;;;;5064335;28;20049;-78
2022/11/19 06:02:08;;;;;;;21.08;8.45;;;;;;;;;;5062444;28;20048;-76
2022/11/19 06:04:35;;;;;;;28.85;10.90;;;;;;;;;;5060672;28;20052;-78
2022/11/19 06:07:01;;;;;;;29.58;12.02;;;;;;;;;;5059452;28;20128;-78
2022/11/19 06:09:28;;;;;;;24.88;10.02;;;;;;;;;;5054507;28;20045;-79
2022/11/19 06:11:54;;;;;;;27.83;10.75;;;;;;;;;;5054512;28;20063;-78
2022/11/19 06:14:25;;;;;;;28.95;11.40;;;;;;;;;;5057173;28;20061;-80
2022/11/19 06:16:53;;;;;;;28.23;12.15;;;;;;;;;;5067923;28;20100;-78
2022/11/19 06:19:20;;;;;;;31.52;11.98;;;;;;;;;;5055463;28;20149;-79
2022/11/19 06:21:47;;;;;;;28.65;11.85;;;;;;;;;;5043263;28;20037;-77
2022/11/19 06:24:14;;;;;;;33.42;11.57;;;;;;;;;;5055356;28;20140;-79
2022/11/19 06:26:41;;;;;;;29.48;11.07;;;;;;;;;;5054973;28;20503;-80
2022/11/19 06:29:10;;;;;;;30.35;11.70;;;;;;;;;;5054825;28;20055;-80
2022/11/19 06:31:37;;;;;;;29.58;10.80;;;;;;;;;;5049479;28;20120;-80
2022/11/19 06:34:03;;;;;;;30.02;12.27;;;;;;;;;;5051025;28;20041;-79
2022/11/19 06:36:29;;;;;;;29.70;12.93;;;;;;;;;;5054691;28;20074;-79
2022/11/19 06:39:05;;;;;;;30.50;11.93;;;;;;;;;;5053244;28;20041;-78
2022/11/19 06:41:32;;;;;;;29.88;11.68;;;;;;;;;;5057889;28;20108;-79
2022/11/19 06:43:58;;;;;;;29.25;12.23;;;;;;;;;;5071064;28;20048;-78
2022/11/19 06:46:24;;;;;;;32.28;12.50;;;;;;;;;;5060343;28;20049;-77
2022/11/19 06:48:51;;;;;;;29.60;11.30;;;;;;;;;;5052561;28;20060;-76
2022/11/19 06:51:17;;;;;;;35.58;13.05;;;;;;;;;;5053017;28;20060;-79
2022/11/19 06:53:44;;;;;;;28.73;11.95;;;;;;;;;;5051914;28;20040;-80
2022/11/19 06:56:10;;;;;;;26.00;10.82;;;;;;;;;;5053003;28;20535;-80
2022/11/19 06:58:37;;;;;;;26.02;11.32;;;;;;;;;;5052020;28;20080;-78
2022/11/19 07:01:03;;;;;;;25.33;10.80;;;;;;;;;;5053202;28;20074;-79
2022/11/19 07:03:29;;;;;;;30.20;11.25;;;;;;;;;;5051650;28;20051;-80
2022/11/19 07:05:57;;;;;;;32.67;10.90;;;;;;;;;;5050663;28;20083;-78
2022/11/19 07:08:24;;;;;;;30.25;11.05;;;;;;;;;;5050596;28;20049;-79
2022/11/19 07:10:50;;;;;;;30.20;11.45;;;;;;;;;;5049668;28;20064;-79
2022/11/19 07:13:17;;;;;;;31.23;11.30;;;;;;;;;;5048909;28;20214;-79
2022/11/19 07:15:43;;;;;;;26.77;11.27;;;;;;;;;;5049567;28;20315;-79
2022/11/19 07:18:09;;;;;;;27.63;11.50;;;;;;;;;;5050960;28;20064;-77
2022/11/19 07:20:36;;;;;;;24.65;11.15;;;;;;;;;;5066997;28;20051;-78
2022/11/19 07:23:02;;;;;;;27.40;11.85;;;;;;;;;;5070022;28;20052;-78
2022/11/19 07:25:28;;;;;;;27.00;12.00;;;;;;;;;;5069348;28;20132;-79
2022/11/19 07:27:55;;;;;;;27.48;10.82;;;;;;;;;;5053755;28;20136;-79
2022/11/19 07:30:21;;;;;;;32.28;12.02;;;;;;;;;;5051718;28;20144;-80
2022/11/19 07:32:48;;;;;;;27.60;11.73;;;;;;;;;;5050572;28;20041;-79
2022/11/19 07:35:14;;;;;;;31.75;11.65;;;;;;;;;;5052115;28;20052;-79
2022/11/19 07:37:41;;;;;;;31.15;12.77;;;;;;;;;;5050228;28;20045;-78
2022/11/19 07:40:09;;;;;;;30.65;12.77;;;;;;;;;;5049756;28;20051;-80
2022/11/19 07:42:48;;;;;;;33.55;12.35;;;;;;;;;;5049381;28;20053;-79
2022/11/19 07:45:19;;;;;;;31.83;11.77;;;;;;;;;;5052121;28;20051;-76
2022/11/19 07:47:45;;;;;;;32.95;13.38;;;;;;;;;;5044206;28;20052;-76
2022/11/19 07:50:12;;;;;;;31.27;12.50;;;;;;;;;;5046106;28;20059;-76
2022/11/19 07:52:38;;;;;;;35.60;14.60;;;;;;;;;;5048290;28;20055;-76
2022/11/19 07:55:05;;;;;;;29.60;12.27;;;;;;;;;;5048587;28;20124;-81
2022/11/19 07:57:32;;;;;;;28.65;12.90;;;;;;;;;;5050322;28;20141;-81
2022/11/19 07:59:58;;;;;;;32.70;13.63;;;;;;;;;;5049528;28;20512;-81
2022/11/19 08:02:25;;;;;;;37.03;15.68;;;;;;;;;;5049253;28;20259;-80
2022/11/19 08:04:51;;;;;;;40.15;15.75;;;;;;;;;;5049699;28;20040;-80
2022/11/19 08:07:18;;;;;;;42.55;17.30;;;;;;;;;;5051561;28;20061;-81
2022/11/19 08:09:44;;;;;;;63.33;23.08;;;;;;;;;;5053253;28;20064;-79
2022/11/19 08:12:11;;;;;;;68.30;25.25;;;;;;;;;;5049605;28;20071;-79
2022/11/19 08:14:37;;;;;;;63.15;23.35;;;;;;;;;;5049542;28;20080;-79
2022/11/19 08:19:48;;;;;;;52.20;19.80;;;;;;;;;;5035578;28;20057;-81
2022/11/19 08:22:15;;;;;;;44.42;16.85;;;;;;;;;;5036941;28;20101;-80
2022/11/19 08:24:41;;;;;;;38.20;16.60;;;;;;;;;;5035720;28;20045;-81
2022/11/19 08:27:07;;;;;;;31.10;14.10;;;;;;;;;;5034041;28;20055;-80
2022/11/19 08:29:34;;;;;;;34.00;13.90;;;;;;;;;;5034809;28;20053;-77
2022/11/19 08:32:00;;;;;;;29.50;12.20;;;;;;;;;;5035253;28;20121;-78
2022/11/19 08:34:26;;;;;;;23.33;10.57;;;;;;;;;;5035219;28;20049;-79
2022/11/19 08:36:53;;;;;;;22.98;10.20;;;;;;;;;;5035331;28;20529;-79
2022/11/19 08:39:19;;;;;;;22.42;10.60;;;;;;;;;;5035365;28;20061;-80
2022/11/19 08:44:30;;;;;;;19.45;10.25;;;;;;;;;;5035506;28;20049;-81
2022/11/19 08:46:57;;;;;;;22.55;10.40;;;;;;;;;;5050448;28;20109;-79
2022/11/19 08:49:23;;;;;;;22.67;10.15;;;;;;;;;;5050757;28;20055;-81
2022/11/19 08:51:51;;;;;;;20.65;8.73;;;;;;;;;;5036367;28;20305;-81
2022/11/19 08:54:17;;;;;;;27.95;9.77;;;;;;;;;;5035823;28;20075;-79
2022/11/19 08:56:44;;;;;;;18.13;8.90;;;;;;;;;;5054613;28;20045;-79
2022/11/19 08:59:11;;;;;;;18.83;9.55;;;;;;;;;;5052006;28;20056;-78
2022/11/19 09:01:37;;;;;;;24.02;9.90;;;;;;;;;;5052980;28;20045;-79
2022/11/19 09:04:04;;;;;;;17.98;9.50;;;;;;;;;;5051336;28;20049;-79
2022/11/19 09:06:36;;;;;;;20.58;9.35;;;;;;;;;;5054392;28;20195;-78
2022/11/19 09:09:03;;;;;;;20.25;10.23;;;;;;;;;;5053522;28;20056;-79
2022/11/19 09:11:29;;;;;;;20.38;10.43;;;;;;;;;;5050195;28;20048;-78
2022/11/19 09:13:56;;;;;;;19.00;9.65;;;;;;;;;;5049403;28;20078;-79
2022/11/19 09:16:23;;;;;;;19.52;9.50;;;;;;;;;;5050604;28;20053;-77
2022/11/19 09:18:49;;;;;;;17.13;10.20;;;;;;;;;;5060795;28;20049;-77
2022/11/19 09:21:15;;;;;;;21.20;10.18;;;;;;;;;;5059256;28;20057;-79
2022/11/19 09:23:42;;;;;;;16.25;9.50;;;;;;;;;;5046727;28;20052;-78
2022/11/19 09:26:13;;;;;;;17.40;9.43;;;;;;;;;;5049890;28;20049;-78
2022/11/19 09:28:39;;;;;;;18.88;9.82;;;;;;;;;;5043218;28;20053;-79
2022/11/19 09:31:13;;;;;;;16.48;8.77;;;;;;;;;;5028897;28;20131;-79
2022/11/19 09:33:41;;;;;;;17.45;8.57;;;;;;;;;;5035336;28;20064;-79
2022/11/19 09:36:09;;;;;;;18.50;9.02;;;;;;;;;;5048988;28;20071;-80
2022/11/19 09:38:35;;;;;;;16.85;8.15;;;;;;;;;;5049237;28;20595;-79
2022/11/19 09:41:10;;;;;;;13.15;7.82;;;;;;;;;;5049664;28;20053;-80
2022/11/19 09:43:37;;;;;;;14.82;7.53;;;;;;;;;;5051881;28;20055;-80
2022/11/19 09:46:16;;;;;;;13.57;7.35;;;;;;;;;;5052138;28;20583;-80
2022/11/19 09:48:44;;;;;;;13.75;7.57;;;;;;;;;;5053011;28;20049;-79
2022/11/19 09:51:15;;;;;;;15.32;8.50;;;;;;;;;;5053377;28;20049;-80
2022/11/19 09:53:58;;;;;;;13.23;7.93;;;;;;;;;;5052488;28;20063;-79
2022/11/19 09:56:25;;;;;;;13.77;7.60;;;;;;;;;;5056195;28;20056;-78
2022/11/19 09:58:53;;;;;;;15.63;7.63;;;;;;;;;;5072128;28;20048;-80
2022/11/19 10:01:21;;;;;;;18.95;7.80;;;;;;;;;;5072984;28;20113;-81
2022/11/19 10:03:48;;;;;;;14.98;7.63;;;;;;;;;;5068164;28;20048;-80
2022/11/19 10:06:27;;;;;;;9.82;5.70;;;;;;;;;;5072186;28;20043;-80
2022/11/19 10:09:20;;;;;;;7.60;4.80;;;;;;;;;;5060431;28;20409;-82
2022/11/19 10:12:09;;;;;;;7.78;4.78;;;;;;;;;;5027574;28;20522;-80
2022/11/19 10:14:54;;;;;;;9.23;4.97;;;;;;;;;;5052548;28;20049;-80
2022/11/19 10:17:27;;;;;;;7.90;5.10;;;;;;;;;;5052610;28;20113;-81
2022/11/19 10:19:53;;;;;;;9.95;4.57;;;;;;;;;;5052626;28;20279;-81
2022/11/19 10:22:28;;;;;;;8.13;4.88;;;;;;;;;;5051856;28;20084;-79
2022/11/19 10:25:01;;;;;;;9.02;5.60;;;;;;;;;;5051536;28;20047;-80
2022/11/19 10:27:34;;;;;;;7.35;4.53;;;;;;;;;;5047947;28;20049;-82
2022/11/19 10:30:03;;;;;;;8.60;4.50;;;;;;;;;;5034818;28;20049;-81
2022/11/19 10:32:41;;;;;;;8.50;4.30;;;;;;;;;;5030524;28;20115;-81
2022/11/19 10:35:14;;;;;;;7.35;4.35;;;;;;;;;;5032497;28;20498;-81
2022/11/19 10:37:45;;;;;;;5.35;4.25;;;;;;;;;;5033779;28;20053;-81
2022/11/19 10:40:14;;;;;;;7.65;4.60;;;;;;;;;;5035339;28;20068;-81
2022/11/19 10:42:44;;;;;;;10.85;4.90;;;;;;;;;;5034124;28;20045;-81
2022/11/19 10:45:17;;;;;;;7.55;4.85;;;;;;;;;;5033476;28;20053;-81
2022/11/19 10:48:10;;;;;;;7.82;4.93;;;;;;;;;;5032074;28;20053;-81
2022/11/19 10:50:36;;;;;;;8.80;5.57;;;;;;;;;;5031185;28;20073;-80
2022/11/19 10:53:03;;;;;;;10.00;6.15;;;;;;;;;;5030912;28;20053;-82
2022/11/19 10:55:33;;;;;;;12.88;6.63;;;;;;;;;;5033907;28;20056;-81
2022/11/19 10:58:23;;;;;;;10.50;5.93;;;;;;;;;;5044587;28;20117;-80
2022/11/19 11:00:52;;;;;;;10.68;5.97;;;;;;;;;;5047226;28;20072;-82
2022/11/19 11:03:32;;;;;;;9.48;6.35;;;;;;;;;;5051989;28;20029;-79
2022/11/19 11:06:08;;;;;;;9.60;5.85;;;;;;;;;;5072428;28;20037;-79
2022/11/19 11:08:54;;;;;;;9.07;5.30;;;;;;;;;;5070863;28;20116;-79
2022/11/19 11:11:20;;;;;;;8.68;5.40;;;;;;;;;;5064625;28;20112;-79
2022/11/19 11:16:45;;;;;;;11.52;5.82;;;;;;;;;;5062093;28;20041;-78
2022/11/19 11:19:21;;;;;;;8.63;5.40;;;;;;;;;;5055862;28;20421;-78
2022/11/19 11:21:52;;;;;;;10.13;5.72;;;;;;;;;;5058619;28;20040;-77
2022/11/19 11:24:19;;;;;;;8.45;5.90;;;;;;;;;;5059266;28;20045;-78
2022/11/19 11:26:46;;;;;;;10.27;6.90;;;;;;;;;;5066594;28;20057;-79
2022/11/19 11:29:12;;;;;;;9.38;5.68;;;;;;;;;;5063390;28;20448;-79
2022/11/19 11:31:43;;;;;;;9.30;5.95;;;;;;;;;;5065190;28;20056;-79
2022/11/19 11:34:28;;;;;;;9.27;5.85;;;;;;;;;;5060941;28;20136;-81
2022/11/19 11:36:56;;;;;;;8.00;5.50;;;;;;;;;;5061630;28;20077;-80
2022/11/19 11:39:27;;;;;;;10.23;5.63;;;;;;;;;;5053635;28;20276;-79
2022/11/19 11:41:54;;;;;;;9.63;5.75;;;;;;;;;;5047787;28;20049;-79
2022/11/19 11:44:47;;;;;;;9.32;6.03;;;;;;;;;;5046276;28;20045;-79
2022/11/19 11:47:19;;;;;;;11.25;6.13;;;;;;;;;;5036019;28;20054;-80
2022/11/19 11:49:47;;;;;;;8.38;5.60;;;;;;;;;;5041762;28;20059;-80
2022/11/19 11:52:16;;;;;;;9.43;5.97;;;;;;;;;;5037486;28;20057;-79
2022/11/19 11:55:03;;;;;;;9.88;5.75;;;;;;;;;;5058899;28;20049;-78
2022/11/19 11:57:32;;;;;;;8.93;5.68;;;;;;;;;;5052509;28;20414;-78
2022/11/19 11:59:58;;;;;;;10.35;4.85;;;;;;;;;;5052207;28;20152;-79
2022/11/19 12:02:26;;;;;;;8.32;5.30;;;;;;;;;;5054582;28;20481;-79
2022/11/19 12:04:53;;;;;;;8.35;5.00;;;;;;;;;;5055355;28;20133;-78
2022/11/19 12:07:19;;;;;;;9.02;5.30;;;;;;;;;;5052204;28;20051;-79
2022/11/19 12:09:55;;;;;;;7.57;5.03;;;;;;;;;;5048386;28;20282;-79
2022/11/19 12:12:37;;;;;;;8.90;5.35;;;;;;;;;;5053545;28;20049;-80
2022/11/19 12:15:12;;;;;;;7.85;5.32;;;;;;;;;;5055218;28;20049;-79
2022/11/19 12:17:46;;;;;;;8.50;5.63;;;;;;;;;;5054876;28;20053;-80
2022/11/19 12:20:39;;;;;;;8.57;5.05;;;;;;;;;;5051580;28;20041;-80
2022/11/19 12:23:24;;;;;;;7.32;5.10;;;;;;;;;;5049763;28;20056;-79
2022/11/19 12:25:50;;;;;;;8.07;5.28;;;;;;;;;;5055558;28;20504;-79
2022/11/19 12:28:19;;;;;;;9.20;5.22;;;;;;;;;;5055070;28;20045;-80
2022/11/19 12:31:06;;;;;;;8.65;5.50;;;;;;;;;;5053862;28;20408;-79
2022/11/19 12:33:44;;;;;;;9.40;6.00;;;;;;;;;;5053215;28;20124;-79
2022/11/19 12:36:17;;;;;;;10.02;6.28;;;;;;;;;;5054134;28;20099;-79
2022/11/19 12:38:51;;;;;;;10.82;5.85;;;;;;;;;;5051734;28;20068;-79
2022/11/19 12:41:17;;;;;;;12.10;6.95;;;;;;;;;;5053129;28;20489;-78
2022/11/19 12:43:55;;;;;;;12.55;6.50;;;;;;;;;;5051341;28;20072;-79
2022/11/19 12:46:34;;;;;;;11.80;6.13;;;;;;;;;;5054988;28;20056;-77
2022/11/19 12:49:19;;;;;;;13.57;6.50;;;;;;;;;;5053977;28;20049;-78
2022/11/19 12:52:01;;;;;;;12.48;6.13;;;;;;;;;;5050812;28;20052;-77
2022/11/19 12:54:37;;;;;;;13.50;7.30;;;;;;;;;;5051954;28;20061;-79
2022/11/19 12:57:27;;;;;;;13.35;7.00;;;;;;;;;;5052541;28;20227;-80
2022/11/19 13:00:09;;;;;;;15.05;7.05;;;;;;;;;;5046519;28;20049;-78
2022/11/19 13:02:39;;;;;;;17.08;7.70;;;;;;;;;;5050507;28;20064;-78
2022/11/19 13:05:19;;;;;;;15.73;7.78;;;;;;;;;;5054544;28;20084;-78
2022/11/19 13:07:54;;;;;;;17.05;7.22;;;;;;;;;;5056408;28;20049;-79
2022/11/19 13:10:26;;;;;;;15.05;6.80;;;;;;;;;;5056404;28;20098;-77
2022/11/19 13:12:54;;;;;;;15.93;7.75;;;;;;;;;;5052688;28;20049;-79
2022/11/19 13:15:23;;;;;;;16.60;7.72;;;;;;;;;;5037885;28;20050;-77
2022/11/19 13:17:54;;;;;;;13.95;7.40;;;;;;;;;;5034121;28;20052;-78
2022/11/19 13:20:26;;;;;;;17.35;7.32;;;;;;;;;;5033774;28;20051;-78
2022/11/19 13:22:56;;;;;;;17.30;7.78;;;;;;;;;;5048400;28;20476;-78
2022/11/19 13:25:23;;;;;;;18.30;7.07;;;;;;;;;;5036638;28;20477;-77
2022/11/19 13:27:51;;;;;;;15.82;7.35;;;;;;;;;;5053670;28;20589;-78
2022/11/19 13:30:22;;;;;;;18.55;8.02;;;;;;;;;;5056958;28;20101;-79
2022/11/19 13:33:09;;;;;;;16.60;7.80;;;;;;;;;;5055417;28;20482;-79
2022/11/19 13:35:46;;;;;;;18.73;7.97;;;;;;;;;;5054317;28;20128;-78
2022/11/19 13:38:15;;;;;;;20.52;8.40;;;;;;;;;;5061684;28;20055;-78
2022/11/19 13:41:08;;;;;;;20.15;8.43;;;;;;;;;;5065139;28;20084;-78
2022/11/19 13:46:29;;;;;;;17.77;7.68;;;;;;;;;;5052131;28;20045;-76
2022/11/19 13:48:59;;;;;;;15.38;7.35;;;;;;;;;;5052656;28;20045;-78
2022/11/19 13:51:28;;;;;;;17.92;7.75;;;;;;;;;;5052174;28;20044;-79
2022/11/19 13:53:56;;;;;;;19.35;8.07;;;;;;;;;;5051504;28;20049;-79
2022/11/19 13:56:45;;;;;;;17.05;8.05;;;;;;;;;;5052082;28;20109;-77
2022/11/19 13:59:24;;;;;;;16.70;8.00;;;;;;;;;;5050343;28;20192;-78
2022/11/19 14:02:17;;;;;;;16.55;7.95;;;;;;;;;;5054490;28;20029;-78
2022/11/19 14:05:16;;;;;;;18.38;8.07;;;;;;;;;;5050310;28;20075;-78
2022/11/19 14:07:45;;;;;;;19.10;8.25;;;;;;;;;;5039215;28;20049;-78
2022/11/19 14:10:11;;;;;;;21.92;8.77;;;;;;;;;;5048102;28;20059;-78
2022/11/19 14:12:50;;;;;;;20.40;8.50;;;;;;;;;;5048946;28;20064;-79
2022/11/19 14:27:18;;;;;;;18.38;8.77;;;;;;;;;;5046363;28;20053;-78
2022/11/19 14:29:44;;;;;;;;;;;;;;;;;;5045192;28;20060;-72
2022/11/19 14:32:11;;;;;;;20.77;9.05;;;;;;;;;;5052822;28;19992;-78
2022/11/19 14:34:40;;;;;;;22.67;9.35;;;;;;;;;;5048029;28;20370;-78
2022/11/19 14:37:14;;;;;;;21.33;9.50;;;;;;;;;;5047645;28;20049;-79
2022/11/19 14:39:42;;;;;;;24.73;9.60;;;;;;;;;;5045947;28;20049;-79
2022/11/19 14:42:13;;;;;;;21.20;9.27;;;;;;;;;;5044079;28;20364;-80
2022/11/19 14:44:40;;;;;;;23.35;10.15;;;;;;;;;;5047104;28;20063;-80
2022/11/19 14:47:22;;;;;;;20.02;9.30;;;;;;;;;;5031461;28;20064;-79
2022/11/19 14:49:54;;;;;;;23.17;9.82;;;;;;;;;;5048423;28;20545;-81
2022/11/19 14:52:49;;;;;;;22.88;10.35;;;;;;;;;;5048016;28;20056;-80
2022/11/19 14:55:16;;;;;;;22.63;9.88;;;;;;;;;;5045657;28;20072;-79
2022/11/19 14:57:43;;;;;;;21.80;10.13;;;;;;;;;;5049067;28;20052;-80
2022/11/19 15:00:12;;;;;;;22.73;10.23;;;;;;;;;;5047253;28;20045;-80
2022/11/19 15:02:44;;;;;;;24.33;10.32;;;;;;;;;;5045324;28;20055;-79
2022/11/19 15:05:17;;;;;;;25.38;10.60;;;;;;;;;;5050676;28;20059;-80
2022/11/19 15:07:46;;;;;;;25.73;10.13;;;;;;;;;;5051611;28;20048;-79
2022/11/19 15:10:44;;;;;;;21.85;9.73;;;;;;;;;;5051641;28;20055;-81
2022/11/19 15:13:25;;;;;;;21.25;9.88;;;;;;;;;;5027814;28;20049;-81
2022/11/19 15:15:53;;;;;;;27.23;10.45;;;;;;;;;;5031627;28;20064;-82
2022/11/19 15:18:19;;;;;;;21.63;10.10;;;;;;;;;;5030262;28;20050;-80
2022/11/19 15:21:01;;;;;;;23.00;9.95;;;;;;;;;;5032527;28;20041;-80